sensor_id;sensor_type;location;lat;lon;timestamp;P1;durP1;ratioP1;P2;durP2;ratioP2
29430;SDS011;16404;49.902;10.074;2023-12-20T00:01:09;27.60;;;14.85;;
29430;SDS011;16404;49.902;10.074;2023-12-20T00:03:54;29.35;;;15.65;;
29430;SDS011;16404;49.902;10.074;2023-12-20T00:06:39;29.35;;;15.13;;
29430;SDS011;16404;49.902;10.074;2023-12-20T00:09:23;39.05;;;15.68;;
29430;SDS011;16404;49.902;10.074;2023-12-20T00:12:08;24.45;;;13.82;;
29430;SDS011;16404;49.902;10.074;2023-12-20T00:14:53;25.98;;;13.60;;
29430;SDS011;16404;49.902;10.074;2023-12-20T00:17:38;25.02;;;12.85;;
29430;SDS011;16404;49.902;10.074;2023-12-20T00:20:23;22.80;;;12.93;;
29430;SDS011;16404;49.902;10.074;2023-12-20T00:23:07;21.95;;;11.05;;
29430;SDS011;16404;49.902;10.074;2023-12-20T00:25:52;18.48;;;11.10;;
29430;SDS011;16404;49.902;10.074;2023-12-20T00:28:37;19.58;;;10.50;;
29430;SDS011;16404;49.902;10.074;2023-12-20T00:31:21;20.17;;;10.65;;
29430;SDS011;16404;49.902;10.074;2023-12-20T00:34:05;20.02;;;10.20;;
29430;SDS011;16404;49.902;10.074;2023-12-20T00:36:50;15.82;;;9.13;;
29430;SDS011;16404;49.902;10.074;2023-12-20T00:39:35;15.48;;;8.23;;
29430;SDS011;16404;49.902;10.074;2023-12-20T00:42:19;19.00;;;8.57;;
29430;SDS011;16404;49.902;10.074;2023-12-20T00:45:04;12.13;;;7.63;;
29430;SDS011;16404;49.902;10.074;2023-12-20T00:47:49;14.02;;;6.97;;
29430;SDS011;16404;49.902;10.074;2023-12-20T00:50:34;11.65;;;6.35;;
29430;SDS011;16404;49.902;10.074;2023-12-20T00:53:18;10.23;;;5.63;;
29430;SDS011;16404;49.902;10.074;2023-12-20T00:56:03;6.30;;;4.25;;
29430;SDS011;16404;49.902;10.074;2023-12-20T00:58:47;7.30;;;3.70;;
29430;SDS011;16404;49.902;10.074;2023-12-20T01:01:32;4.25;;;2.72;;
29430;SDS011;16404;49.902;10.074;2023-12-20T01:07:01;2.40;;;2.10;;
29430;SDS011;16404;49.902;10.074;2023-12-20T01:09:46;2.75;;;2.10;;
29430;SDS011;16404;49.902;10.074;2023-12-20T01:12:30;2.72;;;2.30;;
29430;SDS011;16404;49.902;10.074;2023-12-20T01:15:15;3.42;;;2.45;;
29430;SDS011;16404;49.902;10.074;2023-12-20T01:18:00;2.10;;;1.90;;
29430;SDS011;16404;49.902;10.074;2023-12-20T01:20:44;2.95;;;1.80;;
29430;SDS011;16404;49.902;10.074;2023-12-20T01:23:29;1.92;;;1.77;;
29430;SDS011;16404;49.902;10.074;2023-12-20T01:26:14;2.45;;;1.55;;
29430;SDS011;16404;49.902;10.074;2023-12-20T01:28:58;2.03;;;1.60;;
29430;SDS011;16404;49.902;10.074;2023-12-20T01:31:43;1.92;;;1.73;;
29430;SDS011;16404;49.902;10.074;2023-12-20T01:34:27;2.03;;;1.60;;
29430;SDS011;16404;49.902;10.074;2023-12-20T01:37:12;1.75;;;1.40;;
29430;SDS011;16404;49.902;10.074;2023-12-20T01:39:57;2.47;;;1.77;;
29430;SDS011;16404;49.902;10.074;2023-12-20T01:42:42;2.15;;;1.60;;
29430;SDS011;16404;49.902;10.074;2023-12-20T01:45:26;1.60;;;1.30;;
29430;SDS011;16404;49.902;10.074;2023-12-20T01:48:11;1.95;;;1.55;;
29430;SDS011;16404;49.902;10.074;2023-12-20T01:50:56;1.35;;;1.25;;
29430;SDS011;16404;49.902;10.074;2023-12-20T01:53:41;1.30;;;1.20;;
29430;SDS011;16404;49.902;10.074;2023-12-20T01:56:26;1.67;;;1.30;;
29430;SDS011;16404;49.902;10.074;2023-12-20T01:59:13;1.38;;;1.27;;
29430;SDS011;16404;49.902;10.074;2023-12-20T02:01:57;1.27;;;1.20;;
29430;SDS011;16404;49.902;10.074;2023-12-20T02:04:42;1.95;;;1.30;;
29430;SDS011;16404;49.902;10.074;2023-12-20T02:07:26;2.63;;;1.40;;
29430;SDS011;16404;49.902;10.074;2023-12-20T02:12:57;2.65;;;1.15;;
29430;SDS011;16404;49.902;10.074;2023-12-20T02:15:41;1.20;;;1.10;;
29430;SDS011;16404;49.902;10.074;2023-12-20T02:18:27;1.35;;;1.25;;
29430;SDS011;16404;49.902;10.074;2023-12-20T02:21:12;1.55;;;1.20;;
29430;SDS011;16404;49.902;10.074;2023-12-20T02:23:56;1.50;;;1.40;;
29430;SDS011;16404;49.902;10.074;2023-12-20T02:26:41;1.73;;;1.35;;
29430;SDS011;16404;49.902;10.074;2023-12-20T02:29:26;2.35;;;1.20;;
29430;SDS011;16404;49.902;10.074;2023-12-20T02:32:10;1.58;;;1.20;;
29430;SDS011;16404;49.902;10.074;2023-12-20T02:34:55;1.20;;;1.20;;
29430;SDS011;16404;49.902;10.074;2023-12-20T02:37:40;3.42;;;1.30;;
29430;SDS011;16404;49.902;10.074;2023-12-20T02:40:25;1.65;;;1.38;;
29430;SDS011;16404;49.902;10.074;2023-12-20T02:43:09;1.58;;;1.25;;
29430;SDS011;16404;49.902;10.074;2023-12-20T02:45:54;1.67;;;1.20;;
29430;SDS011;16404;49.902;10.074;2023-12-20T02:48:38;1.40;;;1.23;;
29430;SDS011;16404;49.902;10.074;2023-12-20T02:51:23;1.60;;;1.30;;
29430;SDS011;16404;49.902;10.074;2023-12-20T02:54:07;1.48;;;1.38;;
29430;SDS011;16404;49.902;10.074;2023-12-20T02:56:52;1.55;;;1.23;;
29430;SDS011;16404;49.902;10.074;2023-12-20T02:59:37;1.50;;;1.30;;
29430;SDS011;16404;49.902;10.074;2023-12-20T03:02:21;1.52;;;1.42;;
29430;SDS011;16404;49.902;10.074;2023-12-20T03:05:06;1.88;;;1.33;;
29430;SDS011;16404;49.902;10.074;2023-12-20T03:07:50;3.45;;;1.40;;
29430;SDS011;16404;49.902;10.074;2023-12-20T03:10:35;1.30;;;1.20;;
29430;SDS011;16404;49.902;10.074;2023-12-20T03:13:20;1.30;;;1.20;;
29430;SDS011;16404;49.902;10.074;2023-12-20T03:16:11;0.95;;;0.90;;
29430;SDS011;16404;49.902;10.074;2023-12-20T03:18:56;1.55;;;1.02;;
29430;SDS011;16404;49.902;10.074;2023-12-20T03:21:41;1.80;;;1.10;;
29430;SDS011;16404;49.902;10.074;2023-12-20T03:24:25;0.98;;;0.98;;
29430;SDS011;16404;49.902;10.074;2023-12-20T03:27:10;1.35;;;1.25;;
29430;SDS011;16404;49.902;10.074;2023-12-20T03:29:54;1.30;;;1.20;;
29430;SDS011;16404;49.902;10.074;2023-12-20T03:32:39;1.30;;;1.20;;
29430;SDS011;16404;49.902;10.074;2023-12-20T03:35:23;1.10;;;1.00;;
29430;SDS011;16404;49.902;10.074;2023-12-20T03:38:08;1.48;;;1.20;;
29430;SDS011;16404;49.902;10.074;2023-12-20T03:40:52;1.40;;;1.30;;
29430;SDS011;16404;49.902;10.074;2023-12-20T03:43:37;1.50;;;1.17;;
29430;SDS011;16404;49.902;10.074;2023-12-20T03:46:21;1.30;;;1.20;;
29430;SDS011;16404;49.902;10.074;2023-12-20T03:49:06;1.35;;;1.25;;
29430;SDS011;16404;49.902;10.074;2023-12-20T03:51:50;1.27;;;1.17;;
29430;SDS011;16404;49.902;10.074;2023-12-20T03:54:35;1.27;;;1.10;;
29430;SDS011;16404;49.902;10.074;2023-12-20T03:57:20;1.35;;;1.25;;
29430;SDS011;16404;49.902;10.074;2023-12-20T04:00:05;2.05;;;1.33;;
29430;SDS011;16404;49.902;10.074;2023-12-20T04:02:55;2.30;;;1.05;;
29430;SDS011;16404;49.902;10.074;2023-12-20T04:05:40;1.50;;;1.40;;
29430;SDS011;16404;49.902;10.074;2023-12-20T04:08:25;3.50;;;3.00;;
29430;SDS011;16404;49.902;10.074;2023-12-20T04:11:09;1.77;;;1.67;;
29430;SDS011;16404;49.902;10.074;2023-12-20T04:13:54;3.55;;;1.60;;
29430;SDS011;16404;49.902;10.074;2023-12-20T04:16:39;2.50;;;2.30;;
29430;SDS011;16404;49.902;10.074;2023-12-20T04:19:23;2.42;;;2.08;;
29430;SDS011;16404;49.902;10.074;2023-12-20T04:22:08;1.80;;;1.70;;
29430;SDS011;16404;49.902;10.074;2023-12-20T04:24:53;1.58;;;1.48;;
29430;SDS011;16404;49.902;10.074;2023-12-20T04:27:37;1.50;;;1.40;;
29430;SDS011;16404;49.902;10.074;2023-12-20T04:30:22;2.25;;;2.05;;
29430;SDS011;16404;49.902;10.074;2023-12-20T04:33:07;2.90;;;2.03;;
29430;SDS011;16404;49.902;10.074;2023-12-20T04:35:51;2.05;;;1.92;;
29430;SDS011;16404;49.902;10.074;2023-12-20T04:38:36;2.22;;;1.75;;
29430;SDS011;16404;49.902;10.074;2023-12-20T04:41:20;1.85;;;1.75;;
29430;SDS011;16404;49.902;10.074;2023-12-20T04:44:05;4.05;;;3.50;;
29430;SDS011;16404;49.902;10.074;2023-12-20T04:46:50;2.67;;;2.47;;
29430;SDS011;16404;49.902;10.074;2023-12-20T04:49:34;3.50;;;3.20;;
29430;SDS011;16404;49.902;10.074;2023-12-20T04:52:19;4.43;;;4.03;;
29430;SDS011;16404;49.902;10.074;2023-12-20T04:55:04;4.63;;;2.30;;
29430;SDS011;16404;49.902;10.074;2023-12-20T04:57:49;3.90;;;3.60;;
29430;SDS011;16404;49.902;10.074;2023-12-20T05:00:33;1.67;;;1.58;;
29430;SDS011;16404;49.902;10.074;2023-12-20T05:03:18;2.85;;;2.28;;
29430;SDS011;16404;49.902;10.074;2023-12-20T05:06:02;7.82;;;4.53;;
29430;SDS011;16404;49.902;10.074;2023-12-20T05:08:47;8.20;;;4.50;;
29430;SDS011;16404;49.902;10.074;2023-12-20T05:11:32;8.20;;;5.90;;
29430;SDS011;16404;49.902;10.074;2023-12-20T05:14:17;7.65;;;4.28;;
29430;SDS011;16404;49.902;10.074;2023-12-20T05:17:01;11.52;;;6.47;;
29430;SDS011;16404;49.902;10.074;2023-12-20T05:19:47;4.10;;;3.22;;
29430;SDS011;16404;49.902;10.074;2023-12-20T05:22:31;8.85;;;5.57;;
29430;SDS011;16404;49.902;10.074;2023-12-20T05:25:16;9.88;;;8.70;;
29430;SDS011;16404;49.902;10.074;2023-12-20T05:28:01;11.02;;;8.15;;
29430;SDS011;16404;49.902;10.074;2023-12-20T05:30:46;12.80;;;8.95;;
29430;SDS011;16404;49.902;10.074;2023-12-20T05:33:31;20.88;;;11.52;;
29430;SDS011;16404;49.902;10.074;2023-12-20T05:36:15;9.63;;;4.68;;
29430;SDS011;16404;49.902;10.074;2023-12-20T05:39:00;3.20;;;2.88;;
29430;SDS011;16404;49.902;10.074;2023-12-20T05:41:44;44.88;;;18.00;;
29430;SDS011;16404;49.902;10.074;2023-12-20T05:44:29;72.40;;;32.15;;
29430;SDS011;16404;49.902;10.074;2023-12-20T05:47:13;29.25;;;13.73;;
29430;SDS011;16404;49.902;10.074;2023-12-20T05:49:58;12.70;;;7.15;;
29430;SDS011;16404;49.902;10.074;2023-12-20T05:52:43;12.73;;;9.02;;
29430;SDS011;16404;49.902;10.074;2023-12-20T05:55:27;8.10;;;6.43;;
29430;SDS011;16404;49.902;10.074;2023-12-20T05:58:12;4.20;;;3.80;;
29430;SDS011;16404;49.902;10.074;2023-12-20T06:00:56;3.38;;;3.08;;
29430;SDS011;16404;49.902;10.074;2023-12-20T06:03:41;4.70;;;3.65;;
29430;SDS011;16404;49.902;10.074;2023-12-20T06:06:26;4.95;;;3.60;;
29430;SDS011;16404;49.902;10.074;2023-12-20T06:09:10;3.90;;;3.50;;
29430;SDS011;16404;49.902;10.074;2023-12-20T06:11:55;3.80;;;3.40;;
29430;SDS011;16404;49.902;10.074;2023-12-20T06:14:39;6.75;;;3.75;;
29430;SDS011;16404;49.902;10.074;2023-12-20T06:17:24;4.95;;;3.90;;
29430;SDS011;16404;49.902;10.074;2023-12-20T06:20:09;7.20;;;4.20;;
29430;SDS011;16404;49.902;10.074;2023-12-20T06:25:38;5.75;;;3.60;;
29430;SDS011;16404;49.902;10.074;2023-12-20T06:28:22;6.07;;;4.03;;
29430;SDS011;16404;49.902;10.074;2023-12-20T06:31:07;9.70;;;5.72;;
29430;SDS011;16404;49.902;10.074;2023-12-20T06:33:52;8.27;;;5.93;;
29430;SDS011;16404;49.902;10.074;2023-12-20T06:36:41;11.90;;;7.50;;
29430;SDS011;16404;49.902;10.074;2023-12-20T06:39:25;8.25;;;5.85;;
29430;SDS011;16404;49.902;10.074;2023-12-20T06:42:10;8.57;;;6.22;;
29430;SDS011;16404;49.902;10.074;2023-12-20T06:44:54;12.55;;;9.45;;
29430;SDS011;16404;49.902;10.074;2023-12-20T06:47:39;12.23;;;6.60;;
29430;SDS011;16404;49.902;10.074;2023-12-20T06:50:24;7.88;;;6.00;;
29430;SDS011;16404;49.902;10.074;2023-12-20T06:53:08;8.45;;;4.95;;
29430;SDS011;16404;49.902;10.074;2023-12-20T06:55:53;6.18;;;4.63;;
29430;SDS011;16404;49.902;10.074;2023-12-20T06:58:40;6.70;;;4.85;;
29430;SDS011;16404;49.902;10.074;2023-12-20T07:01:24;7.30;;;4.97;;
29430;SDS011;16404;49.902;10.074;2023-12-20T07:04:09;8.63;;;5.88;;
29430;SDS011;16404;49.902;10.074;2023-12-20T07:06:53;7.80;;;5.60;;
29430;SDS011;16404;49.902;10.074;2023-12-20T07:09:41;9.27;;;5.45;;
29430;SDS011;16404;49.902;10.074;2023-12-20T07:12:27;10.18;;;5.50;;
29430;SDS011;16404;49.902;10.074;2023-12-20T07:15:12;10.52;;;5.20;;
29430;SDS011;16404;49.902;10.074;2023-12-20T07:17:57;7.32;;;4.95;;
29430;SDS011;16404;49.902;10.074;2023-12-20T07:20:43;8.23;;;4.88;;
29430;SDS011;16404;49.902;10.074;2023-12-20T07:23:28;9.02;;;5.10;;
29430;SDS011;16404;49.902;10.074;2023-12-20T07:26:12;8.60;;;5.05;;
29430;SDS011;16404;49.902;10.074;2023-12-20T07:28:57;15.20;;;5.55;;
29430;SDS011;16404;49.902;10.074;2023-12-20T07:34:26;17.20;;;10.07;;
29430;SDS011;16404;49.902;10.074;2023-12-20T07:37:11;17.92;;;10.00;;
29430;SDS011;16404;49.902;10.074;2023-12-20T07:39:56;20.75;;;9.05;;
29430;SDS011;16404;49.902;10.074;2023-12-20T07:42:41;18.23;;;12.15;;
29430;SDS011;16404;49.902;10.074;2023-12-20T07:45:26;24.75;;;14.00;;
29430;SDS011;16404;49.902;10.074;2023-12-20T07:48:10;15.60;;;9.57;;
29430;SDS011;16404;49.902;10.074;2023-12-20T07:50:55;23.02;;;12.18;;
29430;SDS011;16404;49.902;10.074;2023-12-20T07:53:39;22.00;;;11.57;;
29430;SDS011;16404;49.902;10.074;2023-12-20T07:56:24;19.63;;;9.80;;
29430;SDS011;16404;49.902;10.074;2023-12-20T07:59:09;16.05;;;7.13;;
29430;SDS011;16404;49.902;10.074;2023-12-20T08:01:53;21.35;;;9.20;;
29430;SDS011;16404;49.902;10.074;2023-12-20T08:04:38;32.38;;;12.88;;
29430;SDS011;16404;49.902;10.074;2023-12-20T08:07:22;40.13;;;16.98;;
29430;SDS011;16404;49.902;10.074;2023-12-20T08:10:07;25.65;;;10.88;;
29430;SDS011;16404;49.902;10.074;2023-12-20T08:12:52;18.95;;;9.10;;
29430;SDS011;16404;49.902;10.074;2023-12-20T08:15:37;16.58;;;8.25;;
29430;SDS011;16404;49.902;10.074;2023-12-20T08:18:21;13.80;;;5.60;;
29430;SDS011;16404;49.902;10.074;2023-12-20T08:21:06;10.23;;;5.47;;
29430;SDS011;16404;49.902;10.074;2023-12-20T08:23:55;15.23;;;5.68;;
29430;SDS011;16404;49.902;10.074;2023-12-20T08:26:40;9.23;;;5.40;;
29430;SDS011;16404;49.902;10.074;2023-12-20T08:29:24;7.60;;;4.90;;
29430;SDS011;16404;49.902;10.074;2023-12-20T08:32:09;12.98;;;7.32;;
29430;SDS011;16404;49.902;10.074;2023-12-20T08:34:54;14.00;;;5.28;;
29430;SDS011;16404;49.902;10.074;2023-12-20T08:37:38;14.70;;;5.63;;
29430;SDS011;16404;49.902;10.074;2023-12-20T08:40:23;9.52;;;5.50;;
29430;SDS011;16404;49.902;10.074;2023-12-20T08:43:07;10.57;;;5.18;;
29430;SDS011;16404;49.902;10.074;2023-12-20T08:45:52;11.80;;;4.45;;
29430;SDS011;16404;49.902;10.074;2023-12-20T08:48:37;11.73;;;3.20;;
29430;SDS011;16404;49.902;10.074;2023-12-20T08:51:21;8.65;;;3.47;;
29430;SDS011;16404;49.902;10.074;2023-12-20T08:54:07;10.07;;;3.78;;
29430;SDS011;16404;49.902;10.074;2023-12-20T08:56:52;15.18;;;4.15;;
29430;SDS011;16404;49.902;10.074;2023-12-20T08:59:36;11.10;;;3.40;;
29430;SDS011;16404;49.902;10.074;2023-12-20T09:05:06;11.98;;;3.33;;
29430;SDS011;16404;49.902;10.074;2023-12-20T09:07:51;8.98;;;2.90;;
29430;SDS011;16404;49.902;10.074;2023-12-20T09:10:35;8.30;;;2.80;;
29430;SDS011;16404;49.902;10.074;2023-12-20T09:13:21;7.65;;;2.72;;
29430;SDS011;16404;49.902;10.074;2023-12-20T09:16:10;8.73;;;3.70;;
29430;SDS011;16404;49.902;10.074;2023-12-20T09:18:57;10.20;;;3.13;;
29430;SDS011;16404;49.902;10.074;2023-12-20T09:21:41;10.82;;;3.30;;
29430;SDS011;16404;49.902;10.074;2023-12-20T09:27:10;8.60;;;2.42;;
29430;SDS011;16404;49.902;10.074;2023-12-20T09:29:55;12.00;;;4.53;;
29430;SDS011;16404;49.902;10.074;2023-12-20T09:32:39;15.18;;;4.07;;
29430;SDS011;16404;49.902;10.074;2023-12-20T09:35:24;19.77;;;5.07;;
29430;SDS011;16404;49.902;10.074;2023-12-20T09:38:09;10.65;;;4.47;;
29430;SDS011;16404;49.902;10.074;2023-12-20T09:43:39;11.18;;;3.63;;
29430;SDS011;16404;49.902;10.074;2023-12-20T09:46:25;11.75;;;4.05;;
29430;SDS011;16404;49.902;10.074;2023-12-20T09:49:13;19.42;;;5.15;;
29430;SDS011;16404;49.902;10.074;2023-12-20T09:51:59;10.80;;;2.92;;
29430;SDS011;16404;49.902;10.074;2023-12-20T09:54:44;13.88;;;4.55;;
29430;SDS011;16404;49.902;10.074;2023-12-20T09:57:31;22.55;;;6.63;;
29430;SDS011;16404;49.902;10.074;2023-12-20T10:00:16;8.82;;;3.10;;
29430;SDS011;16404;49.902;10.074;2023-12-20T10:03:01;13.90;;;2.72;;
29430;SDS011;16404;49.902;10.074;2023-12-20T10:05:46;9.05;;;3.55;;
29430;SDS011;16404;49.902;10.074;2023-12-20T10:08:33;8.38;;;2.67;;
29430;SDS011;16404;49.902;10.074;2023-12-20T10:11:18;10.98;;;2.78;;
29430;SDS011;16404;49.902;10.074;2023-12-20T10:14:03;10.80;;;2.80;;
29430;SDS011;16404;49.902;10.074;2023-12-20T10:16:48;12.05;;;3.13;;
29430;SDS011;16404;49.902;10.074;2023-12-20T10:19:33;15.00;;;4.93;;
29430;SDS011;16404;49.902;10.074;2023-12-20T10:22:18;15.55;;;3.80;;
29430;SDS011;16404;49.902;10.074;2023-12-20T10:25:02;7.88;;;2.25;;
29430;SDS011;16404;49.902;10.074;2023-12-20T10:27:47;7.93;;;2.45;;
29430;SDS011;16404;49.902;10.074;2023-12-20T10:30:31;13.45;;;3.85;;
29430;SDS011;16404;49.902;10.074;2023-12-20T10:33:26;16.65;;;4.70;;
29430;SDS011;16404;49.902;10.074;2023-12-20T10:36:12;13.85;;;3.80;;
29430;SDS011;16404;49.902;10.074;2023-12-20T10:38:57;19.52;;;4.28;;
29430;SDS011;16404;49.902;10.074;2023-12-20T10:41:42;9.05;;;3.55;;
29430;SDS011;16404;49.902;10.074;2023-12-20T10:44:29;11.98;;;4.03;;
29430;SDS011;16404;49.902;10.074;2023-12-20T10:47:15;16.15;;;6.53;;
29430;SDS011;16404;49.902;10.074;2023-12-20T10:50:00;7.57;;;2.90;;
29430;SDS011;16404;49.902;10.074;2023-12-20T10:55:30;11.30;;;3.03;;
29430;SDS011;16404;49.902;10.074;2023-12-20T10:58:15;8.00;;;2.53;;
29430;SDS011;16404;49.902;10.074;2023-12-20T11:01:01;15.48;;;3.88;;
29430;SDS011;16404;49.902;10.074;2023-12-20T11:03:49;17.23;;;3.45;;
29430;SDS011;16404;49.902;10.074;2023-12-20T11:06:54;14.02;;;2.90;;
29430;SDS011;16404;49.902;10.074;2023-12-20T11:09:47;9.85;;;2.67;;
29430;SDS011;16404;49.902;10.074;2023-12-20T11:13:23;10.47;;;3.43;;
29430;SDS011;16404;49.902;10.074;2023-12-20T11:15:54;11.73;;;2.58;;
29430;SDS011;16404;49.902;10.074;2023-12-20T11:18:40;6.72;;;2.60;;
29430;SDS011;16404;49.902;10.074;2023-12-20T11:21:25;9.25;;;2.97;;
29430;SDS011;16404;49.902;10.074;2023-12-20T11:24:15;14.60;;;2.92;;
29430;SDS011;16404;49.902;10.074;2023-12-20T11:27:00;13.48;;;3.40;;
29430;SDS011;16404;49.902;10.074;2023-12-20T11:29:52;11.40;;;3.80;;
29430;SDS011;16404;49.902;10.074;2023-12-20T11:32:37;11.25;;;3.90;;
29430;SDS011;16404;49.902;10.074;2023-12-20T11:35:24;9.57;;;3.33;;
29430;SDS011;16404;49.902;10.074;2023-12-20T11:38:10;10.48;;;3.28;;
29430;SDS011;16404;49.902;10.074;2023-12-20T11:40:54;8.85;;;3.40;;
29430;SDS011;16404;49.902;10.074;2023-12-20T11:46:24;10.13;;;3.00;;
29430;SDS011;16404;49.902;10.074;2023-12-20T11:49:09;10.95;;;3.45;;
29430;SDS011;16404;49.902;10.074;2023-12-20T11:51:53;11.93;;;3.90;;
29430;SDS011;16404;49.902;10.074;2023-12-20T11:54:38;15.23;;;6.18;;
29430;SDS011;16404;49.902;10.074;2023-12-20T11:57:22;7.68;;;3.15;;
29430;SDS011;16404;49.902;10.074;2023-12-20T12:00:07;11.18;;;2.70;;
29430;SDS011;16404;49.902;10.074;2023-12-20T12:02:58;7.43;;;2.75;;
29430;SDS011;16404;49.902;10.074;2023-12-20T12:08:30;10.52;;;2.63;;
29430;SDS011;16404;49.902;10.074;2023-12-20T12:11:14;10.43;;;2.70;;
29430;SDS011;16404;49.902;10.074;2023-12-20T12:13:58;6.55;;;2.50;;
29430;SDS011;16404;49.902;10.074;2023-12-20T12:19:29;8.82;;;2.65;;
29430;SDS011;16404;49.902;10.074;2023-12-20T12:22:18;7.32;;;2.85;;
29430;SDS011;16404;49.902;10.074;2023-12-20T12:25:10;16.77;;;5.10;;
29430;SDS011;16404;49.902;10.074;2023-12-20T12:27:56;9.10;;;3.03;;
29430;SDS011;16404;49.902;10.074;2023-12-20T12:30:42;7.95;;;3.05;;
29430;SDS011;16404;49.902;10.074;2023-12-20T12:33:26;14.40;;;4.45;;
29430;SDS011;16404;49.902;10.074;2023-12-20T12:36:12;9.13;;;3.15;;
29430;SDS011;16404;49.902;10.074;2023-12-20T12:39:02;9.02;;;3.58;;
29430;SDS011;16404;49.902;10.074;2023-12-20T12:41:48;9.00;;;3.17;;
29430;SDS011;16404;49.902;10.074;2023-12-20T12:44:33;12.90;;;2.72;;
29430;SDS011;16404;49.902;10.074;2023-12-20T12:47:17;12.07;;;3.63;;
29430;SDS011;16404;49.902;10.074;2023-12-20T12:50:02;12.23;;;3.30;;
29430;SDS011;16404;49.902;10.074;2023-12-20T12:52:46;7.43;;;3.20;;
29430;SDS011;16404;49.902;10.074;2023-12-20T12:55:31;9.35;;;2.50;;
29430;SDS011;16404;49.902;10.074;2023-12-20T12:58:15;15.60;;;4.05;;
29430;SDS011;16404;49.902;10.074;2023-12-20T13:01:00;14.48;;;4.60;;
29430;SDS011;16404;49.902;10.074;2023-12-20T13:03:45;11.73;;;3.10;;
29430;SDS011;16404;49.902;10.074;2023-12-20T13:06:29;19.02;;;6.35;;
29430;SDS011;16404;49.902;10.074;2023-12-20T13:09:14;15.95;;;3.25;;
29430;SDS011;16404;49.902;10.074;2023-12-20T13:11:59;10.05;;;3.17;;
29430;SDS011;16404;49.902;10.074;2023-12-20T13:14:45;10.57;;;3.53;;
29430;SDS011;16404;49.902;10.074;2023-12-20T13:17:30;9.90;;;2.75;;
29430;SDS011;16404;49.902;10.074;2023-12-20T13:20:14;10.57;;;4.82;;
29430;SDS011;16404;49.902;10.074;2023-12-20T13:22:59;11.00;;;4.00;;
29430;SDS011;16404;49.902;10.074;2023-12-20T13:25:44;15.60;;;3.72;;
29430;SDS011;16404;49.902;10.074;2023-12-20T13:28:29;10.18;;;3.50;;
29430;SDS011;16404;49.902;10.074;2023-12-20T13:31:14;8.85;;;3.72;;
29430;SDS011;16404;49.902;10.074;2023-12-20T13:33:58;13.80;;;3.78;;
29430;SDS011;16404;49.902;10.074;2023-12-20T13:36:44;17.83;;;4.65;;
29430;SDS011;16404;49.902;10.074;2023-12-20T13:39:33;16.02;;;5.57;;
29430;SDS011;16404;49.902;10.074;2023-12-20T13:42:18;9.18;;;3.85;;
29430;SDS011;16404;49.902;10.074;2023-12-20T13:45:04;8.85;;;2.85;;
29430;SDS011;16404;49.902;10.074;2023-12-20T13:47:49;11.15;;;2.72;;
29430;SDS011;16404;49.902;10.074;2023-12-20T13:50:34;15.48;;;6.65;;
29430;SDS011;16404;49.902;10.074;2023-12-20T13:53:18;11.88;;;5.72;;
29430;SDS011;16404;49.902;10.074;2023-12-20T13:56:03;16.05;;;5.75;;
29430;SDS011;16404;49.902;10.074;2023-12-20T13:58:49;11.32;;;4.75;;
29430;SDS011;16404;49.902;10.074;2023-12-20T14:01:34;10.57;;;2.92;;
29430;SDS011;16404;49.902;10.074;2023-12-20T14:04:19;12.75;;;3.72;;
29430;SDS011;16404;49.902;10.074;2023-12-20T14:07:05;13.05;;;3.60;;
29430;SDS011;16404;49.902;10.074;2023-12-20T14:09:51;10.38;;;3.35;;
29430;SDS011;16404;49.902;10.074;2023-12-20T14:12:36;11.75;;;4.75;;
29430;SDS011;16404;49.902;10.074;2023-12-20T14:15:21;15.20;;;4.65;;
29430;SDS011;16404;49.902;10.074;2023-12-20T14:18:09;11.13;;;4.10;;
29430;SDS011;16404;49.902;10.074;2023-12-20T14:20:53;15.75;;;5.53;;
29430;SDS011;16404;49.902;10.074;2023-12-20T14:23:39;13.85;;;4.18;;
29430;SDS011;16404;49.902;10.074;2023-12-20T14:26:23;17.85;;;6.80;;
29430;SDS011;16404;49.902;10.074;2023-12-20T14:29:08;12.38;;;4.10;;
29430;SDS011;16404;49.902;10.074;2023-12-20T14:31:52;12.85;;;4.30;;
29430;SDS011;16404;49.902;10.074;2023-12-20T14:34:37;16.95;;;6.93;;
29430;SDS011;16404;49.902;10.074;2023-12-20T14:37:21;14.02;;;3.53;;
29430;SDS011;16404;49.902;10.074;2023-12-20T14:40:06;10.65;;;3.88;;
29430;SDS011;16404;49.902;10.074;2023-12-20T14:42:55;12.93;;;3.70;;
29430;SDS011;16404;49.902;10.074;2023-12-20T14:45:40;13.25;;;5.03;;
29430;SDS011;16404;49.902;10.074;2023-12-20T14:48:25;12.40;;;3.53;;
29430;SDS011;16404;49.902;10.074;2023-12-20T14:51:11;13.52;;;4.68;;
29430;SDS011;16404;49.902;10.074;2023-12-20T14:53:57;21.13;;;10.00;;
29430;SDS011;16404;49.902;10.074;2023-12-20T14:56:42;14.05;;;5.90;;
29430;SDS011;16404;49.902;10.074;2023-12-20T14:59:26;16.02;;;7.35;;
29430;SDS011;16404;49.902;10.074;2023-12-20T15:02:11;25.77;;;8.18;;
29430;SDS011;16404;49.902;10.074;2023-12-20T15:04:55;17.85;;;6.05;;
29430;SDS011;16404;49.902;10.074;2023-12-20T15:07:40;62.33;;;20.10;;
29430;SDS011;16404;49.902;10.074;2023-12-20T15:10:25;63.97;;;15.00;;
29430;SDS011;16404;49.902;10.074;2023-12-20T15:13:09;28.90;;;11.73;;
29430;SDS011;16404;49.902;10.074;2023-12-20T15:15:54;19.17;;;7.40;;
29430;SDS011;16404;49.902;10.074;2023-12-20T15:18:38;18.05;;;5.32;;
29430;SDS011;16404;49.902;10.074;2023-12-20T15:21:23;12.80;;;4.35;;
29430;SDS011;16404;49.902;10.074;2023-12-20T15:24:15;19.83;;;4.82;;
29430;SDS011;16404;49.902;10.074;2023-12-20T15:27:00;11.43;;;4.55;;
29430;SDS011;16404;49.902;10.074;2023-12-20T15:29:45;17.45;;;6.35;;
29430;SDS011;16404;49.902;10.074;2023-12-20T15:32:29;24.48;;;7.13;;
29430;SDS011;16404;49.902;10.074;2023-12-20T15:35:15;20.02;;;6.18;;
29430;SDS011;16404;49.902;10.074;2023-12-20T15:37:59;17.73;;;6.43;;
29430;SDS011;16404;49.902;10.074;2023-12-20T15:43:29;26.80;;;7.60;;
29430;SDS011;16404;49.902;10.074;2023-12-20T15:46:14;21.83;;;7.25;;
29430;SDS011;16404;49.902;10.074;2023-12-20T15:48:58;22.60;;;8.00;;
29430;SDS011;16404;49.902;10.074;2023-12-20T15:51:43;11.88;;;4.63;;
29430;SDS011;16404;49.902;10.074;2023-12-20T15:54:27;25.92;;;7.95;;
29430;SDS011;16404;49.902;10.074;2023-12-20T15:57:12;12.98;;;5.30;;
29430;SDS011;16404;49.902;10.074;2023-12-20T15:59:59;16.45;;;5.25;;
29430;SDS011;16404;49.902;10.074;2023-12-20T16:02:44;20.50;;;6.45;;
29430;SDS011;16404;49.902;10.074;2023-12-20T16:05:28;16.45;;;6.50;;
29430;SDS011;16404;49.902;10.074;2023-12-20T16:08:13;25.70;;;8.48;;
29430;SDS011;16404;49.902;10.074;2023-12-20T16:13:42;29.23;;;8.60;;
29430;SDS011;16404;49.902;10.074;2023-12-20T16:16:27;28.63;;;9.00;;
29430;SDS011;16404;49.902;10.074;2023-12-20T16:19:11;21.92;;;6.45;;
29430;SDS011;16404;49.902;10.074;2023-12-20T16:21:56;27.98;;;9.00;;
29430;SDS011;16404;49.902;10.074;2023-12-20T16:24:40;29.48;;;8.27;;
29430;SDS011;16404;49.902;10.074;2023-12-20T16:27:25;25.75;;;9.63;;
29430;SDS011;16404;49.902;10.074;2023-12-20T16:30:10;18.50;;;7.10;;
29430;SDS011;16404;49.902;10.074;2023-12-20T16:32:54;22.95;;;5.65;;
29430;SDS011;16404;49.902;10.074;2023-12-20T16:35:39;17.33;;;6.22;;
29430;SDS011;16404;49.902;10.074;2023-12-20T16:38:23;10.75;;;4.93;;
29430;SDS011;16404;49.902;10.074;2023-12-20T16:41:08;17.30;;;6.60;;
29430;SDS011;16404;49.902;10.074;2023-12-20T16:43:52;17.17;;;5.20;;
29430;SDS011;16404;49.902;10.074;2023-12-20T16:46:37;13.60;;;4.30;;